sensor_id;sensor_type;location;lat;lon;timestamp;temperature;humidity
21950;DHT22;11139;51.284;7.226;2022-07-05T00:01:28;18.90;92.70
21950;DHT22;11139;51.284;7.226;2022-07-05T00:03:56;18.90;92.80
21950;DHT22;11139;51.284;7.226;2022-07-05T00:06:22;18.90;92.80
21950;DHT22;11139;51.284;7.226;2022-07-05T00:08:51;18.90;92.80
21950;DHT22;11139;51.284;7.226;2022-07-05T00:11:18;18.90;92.80
21950;DHT22;11139;51.284;7.226;2022-07-05T00:13:47;18.90;92.80
21950;DHT22;11139;51.284;7.226;2022-07-05T00:16:13;18.90;92.80
21950;DHT22;11139;51.284;7.226;2022-07-05T00:18:38;18.90;92.80
21950;DHT22;11139;51.284;7.226;2022-07-05T00:21:07;18.90;92.90
21950;DHT22;11139;51.284;7.226;2022-07-05T00:23:33;18.90;92.90
21950;DHT22;11139;51.284;7.226;2022-07-05T00:26:04;18.90;92.90
21950;DHT22;11139;51.284;7.226;2022-07-05T00:28:36;18.90;92.90
21950;DHT22;11139;51.284;7.226;2022-07-05T00:31:01;18.90;92.90
21950;DHT22;11139;51.284;7.226;2022-07-05T00:33:30;18.90;92.80
21950;DHT22;11139;51.284;7.226;2022-07-05T00:35:56;18.90;92.90
21950;DHT22;11139;51.284;7.226;2022-07-05T00:38:21;18.80;92.90
21950;DHT22;11139;51.284;7.226;2022-07-05T00:40:49;18.90;92.90
21950;DHT22;11139;51.284;7.226;2022-07-05T00:43:17;18.90;92.90
21950;DHT22;11139;51.284;7.226;2022-07-05T00:45:46;18.80;93.00
21950;DHT22;11139;51.284;7.226;2022-07-05T00:48:17;18.80;92.90
21950;DHT22;11139;51.284;7.226;2022-07-05T00:50:42;18.90;93.00
21950;DHT22;11139;51.284;7.226;2022-07-05T00:53:08;18.80;92.90
21950;DHT22;11139;51.284;7.226;2022-07-05T00:55:37;18.80;93.00
21950;DHT22;11139;51.284;7.226;2022-07-05T00:58:09;18.80;93.00
21950;DHT22;11139;51.284;7.226;2022-07-05T01:00:35;18.80;93.00
21950;DHT22;11139;51.284;7.226;2022-07-05T01:03:01;18.80;92.90
21950;DHT22;11139;51.284;7.226;2022-07-05T01:05:27;18.80;92.90
21950;DHT22;11139;51.284;7.226;2022-07-05T01:07:52;18.80;93.00
21950;DHT22;11139;51.284;7.226;2022-07-05T01:10:18;18.80;93.00
21950;DHT22;11139;51.284;7.226;2022-07-05T01:12:50;18.80;93.00
21950;DHT22;11139;51.284;7.226;2022-07-05T01:15:15;18.70;93.00
21950;DHT22;11139;51.284;7.226;2022-07-05T01:17:42;18.70;93.00
21950;DHT22;11139;51.284;7.226;2022-07-05T01:20:08;18.70;93.00
21950;DHT22;11139;51.284;7.226;2022-07-05T01:25:18;18.80;93.00
21950;DHT22;11139;51.284;7.226;2022-07-05T01:27:44;18.70;93.00
21950;DHT22;11139;51.284;7.226;2022-07-05T01:30:16;18.70;93.00
21950;DHT22;11139;51.284;7.226;2022-07-05T01:32:44;18.70;93.00
21950;DHT22;11139;51.284;7.226;2022-07-05T01:35:10;18.70;93.10
21950;DHT22;11139;51.284;7.226;2022-07-05T01:37:37;18.70;93.00
21950;DHT22;11139;51.284;7.226;2022-07-05T01:40:03;18.70;93.00
21950;DHT22;11139;51.284;7.226;2022-07-05T01:42:32;18.70;93.00
21950;DHT22;11139;51.284;7.226;2022-07-05T01:45:00;18.70;93.10
21950;DHT22;11139;51.284;7.226;2022-07-05T01:47:26;18.70;93.10
21950;DHT22;11139;51.284;7.226;2022-07-05T01:49:52;18.70;93.10
21950;DHT22;11139;51.284;7.226;2022-07-05T01:52:20;18.70;93.10
21950;DHT22;11139;51.284;7.226;2022-07-05T01:54:48;18.70;93.10
21950;DHT22;11139;51.284;7.226;2022-07-05T01:57:13;18.70;93.10
21950;DHT22;11139;51.284;7.226;2022-07-05T01:59:45;18.70;93.10
21950;DHT22;11139;51.284;7.226;2022-07-05T02:02:11;18.70;93.10
21950;DHT22;11139;51.284;7.226;2022-07-05T02:04:42;18.60;93.10
21950;DHT22;11139;51.284;7.226;2022-07-05T02:07:10;18.70;93.10
21950;DHT22;11139;51.284;7.226;2022-07-05T02:09:44;18.60;93.10
21950;DHT22;11139;51.284;7.226;2022-07-05T02:12:15;18.60;93.10
21950;DHT22;11139;51.284;7.226;2022-07-05T02:14:41;18.60;93.10
21950;DHT22;11139;51.284;7.226;2022-07-05T02:17:09;18.60;93.10
21950;DHT22;11139;51.284;7.226;2022-07-05T02:19:38;18.60;93.10
21950;DHT22;11139;51.284;7.226;2022-07-05T02:22:04;18.60;93.10
21950;DHT22;11139;51.284;7.226;2022-07-05T02:24:32;18.60;93.10
21950;DHT22;11139;51.284;7.226;2022-07-05T02:26:58;18.60;93.10
21950;DHT22;11139;51.284;7.226;2022-07-05T02:29:27;18.60;93.20
21950;DHT22;11139;51.284;7.226;2022-07-05T02:31:52;18.60;93.20
21950;DHT22;11139;51.284;7.226;2022-07-05T02:34:27;18.60;93.20
21950;DHT22;11139;51.284;7.226;2022-07-05T02:36:58;18.50;93.10
21950;DHT22;11139;51.284;7.226;2022-07-05T02:39:24;18.60;93.20
21950;DHT22;11139;51.284;7.226;2022-07-05T02:41:49;18.50;93.20
21950;DHT22;11139;51.284;7.226;2022-07-05T02:44:15;18.60;93.20
21950;DHT22;11139;51.284;7.226;2022-07-05T02:46:44;18.60;93.20
21950;DHT22;11139;51.284;7.226;2022-07-05T02:49:17;18.50;93.20
21950;DHT22;11139;51.284;7.226;2022-07-05T02:51:43;18.50;93.20
21950;DHT22;11139;51.284;7.226;2022-07-05T02:54:11;18.50;93.20
21950;DHT22;11139;51.284;7.226;2022-07-05T02:56:37;18.50;93.30
21950;DHT22;11139;51.284;7.226;2022-07-05T02:59:14;18.50;93.20
21950;DHT22;11139;51.284;7.226;2022-07-05T03:01:43;18.50;93.20
21950;DHT22;11139;51.284;7.226;2022-07-05T03:04:11;18.50;93.20
21950;DHT22;11139;51.284;7.226;2022-07-05T03:06:44;18.50;93.20
21950;DHT22;11139;51.284;7.226;2022-07-05T03:09:09;18.50;93.20
21950;DHT22;11139;51.284;7.226;2022-07-05T03:11:38;18.50;93.30
21950;DHT22;11139;51.284;7.226;2022-07-05T03:14:04;18.50;93.20
21950;DHT22;11139;51.284;7.226;2022-07-05T03:16:29;18.50;93.30
21950;DHT22;11139;51.284;7.226;2022-07-05T03:18:55;18.40;93.30
21950;DHT22;11139;51.284;7.226;2022-07-05T03:21:21;18.40;93.30
21950;DHT22;11139;51.284;7.226;2022-07-05T03:23:47;18.50;93.30
21950;DHT22;11139;51.284;7.226;2022-07-05T03:26:12;18.50;93.30
21950;DHT22;11139;51.284;7.226;2022-07-05T03:28:38;18.40;93.30
21950;DHT22;11139;51.284;7.226;2022-07-05T03:31:04;18.40;93.30
21950;DHT22;11139;51.284;7.226;2022-07-05T03:33:40;18.50;93.30
21950;DHT22;11139;51.284;7.226;2022-07-05T03:36:05;18.40;93.30
21950;DHT22;11139;51.284;7.226;2022-07-05T03:38:31;18.40;93.30
21950;DHT22;11139;51.284;7.226;2022-07-05T03:40:58;18.40;93.30
21950;DHT22;11139;51.284;7.226;2022-07-05T03:43:24;18.40;93.30
21950;DHT22;11139;51.284;7.226;2022-07-05T03:45:49;18.40;93.30
21950;DHT22;11139;51.284;7.226;2022-07-05T03:48:15;18.40;93.30
21950;DHT22;11139;51.284;7.226;2022-07-05T03:50:43;18.40;93.30
21950;DHT22;11139;51.284;7.226;2022-07-05T03:53:08;18.40;93.30
21950;DHT22;11139;51.284;7.226;2022-07-05T03:55:34;18.40;93.40
21950;DHT22;11139;51.284;7.226;2022-07-05T03:58:11;18.30;93.40
21950;DHT22;11139;51.284;7.226;2022-07-05T04:00:39;18.30;93.40
21950;DHT22;11139;51.284;7.226;2022-07-05T04:03:11;18.30;93.40
21950;DHT22;11139;51.284;7.226;2022-07-05T04:05:36;18.30;93.40
21950;DHT22;11139;51.284;7.226;2022-07-05T04:08:02;18.30;93.40
21950;DHT22;11139;51.284;7.226;2022-07-05T04:10:28;18.30;93.40
21950;DHT22;11139;51.284;7.226;2022-07-05T04:12:53;18.30;93.40
21950;DHT22;11139;51.284;7.226;2022-07-05T04:15:21;18.30;93.40
21950;DHT22;11139;51.284;7.226;2022-07-05T04:20:15;18.30;93.40
21950;DHT22;11139;51.284;7.226;2022-07-05T04:22:59;18.30;93.40
21950;DHT22;11139;51.284;7.226;2022-07-05T04:25:27;18.30;93.40
21950;DHT22;11139;51.284;7.226;2022-07-05T04:27:55;18.30;93.50
21950;DHT22;11139;51.284;7.226;2022-07-05T04:30:22;18.30;93.40
21950;DHT22;11139;51.284;7.226;2022-07-05T04:32:48;18.30;93.50
21950;DHT22;11139;51.284;7.226;2022-07-05T04:35:25;18.20;93.40
21950;DHT22;11139;51.284;7.226;2022-07-05T04:37:51;18.30;93.50
21950;DHT22;11139;51.284;7.226;2022-07-05T04:40:16;18.20;93.50
21950;DHT22;11139;51.284;7.226;2022-07-05T04:42:42;18.20;93.50
21950;DHT22;11139;51.284;7.226;2022-07-05T04:45:12;18.20;93.50
21950;DHT22;11139;51.284;7.226;2022-07-05T04:47:38;18.20;93.50
21950;DHT22;11139;51.284;7.226;2022-07-05T04:50:06;18.20;93.50
21950;DHT22;11139;51.284;7.226;2022-07-05T04:52:35;18.20;93.50
21950;DHT22;11139;51.284;7.226;2022-07-05T04:55:00;18.20;93.50
21950;DHT22;11139;51.284;7.226;2022-07-05T04:57:39;18.20;93.60
21950;DHT22;11139;51.284;7.226;2022-07-05T05:02:43;18.20;93.60
21950;DHT22;11139;51.284;7.226;2022-07-05T05:05:09;18.20;93.60
21950;DHT22;11139;51.284;7.226;2022-07-05T05:07:40;18.20;93.60
21950;DHT22;11139;51.284;7.226;2022-07-05T05:10:06;18.20;93.60
21950;DHT22;11139;51.284;7.226;2022-07-05T05:12:32;18.20;93.60
21950;DHT22;11139;51.284;7.226;2022-07-05T05:14:58;18.20;93.70
21950;DHT22;11139;51.284;7.226;2022-07-05T05:17:33;18.20;93.70
21950;DHT22;11139;51.284;7.226;2022-07-05T05:19:59;18.20;93.60
21950;DHT22;11139;51.284;7.226;2022-07-05T05:22:32;18.20;93.70
21950;DHT22;11139;51.284;7.226;2022-07-05T05:25:00;18.20;93.70
21950;DHT22;11139;51.284;7.226;2022-07-05T05:27:29;18.20;93.70
21950;DHT22;11139;51.284;7.226;2022-07-05T05:29:57;18.20;93.70
21950;DHT22;11139;51.284;7.226;2022-07-05T05:32:23;18.20;93.70
21950;DHT22;11139;51.284;7.226;2022-07-05T05:34:48;18.20;93.70
21950;DHT22;11139;51.284;7.226;2022-07-05T05:37:14;18.10;93.70
21950;DHT22;11139;51.284;7.226;2022-07-05T05:39:42;18.20;93.80
21950;DHT22;11139;51.284;7.226;2022-07-05T05:42:08;18.10;93.80
21950;DHT22;11139;51.284;7.226;2022-07-05T05:44:36;18.20;93.80
21950;DHT22;11139;51.284;7.226;2022-07-05T05:47:02;18.20;93.80
21950;DHT22;11139;51.284;7.226;2022-07-05T05:49:28;18.10;93.80
21950;DHT22;11139;51.284;7.226;2022-07-05T05:51:53;18.20;93.80
21950;DHT22;11139;51.284;7.226;2022-07-05T05:54:19;18.20;93.80
21950;DHT22;11139;51.284;7.226;2022-07-05T05:56:44;18.20;93.80
21950;DHT22;11139;51.284;7.226;2022-07-05T05:59:10;18.10;93.80
21950;DHT22;11139;51.284;7.226;2022-07-05T06:01:35;18.10;93.80
21950;DHT22;11139;51.284;7.226;2022-07-05T06:04:01;18.10;93.70
21950;DHT22;11139;51.284;7.226;2022-07-05T06:06:27;18.10;93.80
21950;DHT22;11139;51.284;7.226;2022-07-05T06:08:52;18.20;93.80
21950;DHT22;11139;51.284;7.226;2022-07-05T06:11:18;18.10;93.80
21950;DHT22;11139;51.284;7.226;2022-07-05T06:13:43;18.20;93.80
21950;DHT22;11139;51.284;7.226;2022-07-05T06:16:09;18.10;93.80
21950;DHT22;11139;51.284;7.226;2022-07-05T06:18:35;18.20;93.80
21950;DHT22;11139;51.284;7.226;2022-07-05T06:21:00;18.10;93.80
21950;DHT22;11139;51.284;7.226;2022-07-05T06:23:26;18.20;93.80
21950;DHT22;11139;51.284;7.226;2022-07-05T06:25:57;18.10;93.80
21950;DHT22;11139;51.284;7.226;2022-07-05T06:28:23;18.20;93.80
21950;DHT22;11139;51.284;7.226;2022-07-05T06:30:48;18.10;93.90
21950;DHT22;11139;51.284;7.226;2022-07-05T06:33:14;18.10;94.00
21950;DHT22;11139;51.284;7.226;2022-07-05T06:35:39;18.20;94.00
21950;DHT22;11139;51.284;7.226;2022-07-05T06:38:06;18.10;94.00
21950;DHT22;11139;51.284;7.226;2022-07-05T06:40:40;18.10;93.90
21950;DHT22;11139;51.284;7.226;2022-07-05T06:43:08;18.10;93.90
21950;DHT22;11139;51.284;7.226;2022-07-05T06:45:36;18.10;93.90
21950;DHT22;11139;51.284;7.226;2022-07-05T06:48:07;18.20;93.90
21950;DHT22;11139;51.284;7.226;2022-07-05T06:50:33;18.20;93.80
21950;DHT22;11139;51.284;7.226;2022-07-05T06:53:01;18.10;93.90
21950;DHT22;11139;51.284;7.226;2022-07-05T06:55:26;18.20;93.90
21950;DHT22;11139;51.284;7.226;2022-07-05T06:57:59;18.10;93.90
21950;DHT22;11139;51.284;7.226;2022-07-05T07:00:24;18.20;93.80
21950;DHT22;11139;51.284;7.226;2022-07-05T07:02:50;18.10;93.80
21950;DHT22;11139;51.284;7.226;2022-07-05T07:05:16;18.10;93.70
21950;DHT22;11139;51.284;7.226;2022-07-05T07:07:52;18.10;93.80
21950;DHT22;11139;51.284;7.226;2022-07-05T07:10:36;18.20;93.80
21950;DHT22;11139;51.284;7.226;2022-07-05T07:13:02;18.20;93.70
21950;DHT22;11139;51.284;7.226;2022-07-05T07:15:28;18.20;93.40
21950;DHT22;11139;51.284;7.226;2022-07-05T07:17:53;18.20;93.10
21950;DHT22;11139;51.284;7.226;2022-07-05T07:20:22;18.20;93.40
21950;DHT22;11139;51.284;7.226;2022-07-05T07:22:48;18.20;93.20
21950;DHT22;11139;51.284;7.226;2022-07-05T07:25:14;18.20;93.30
21950;DHT22;11139;51.284;7.226;2022-07-05T07:27:43;18.20;93.40
21950;DHT22;11139;51.284;7.226;2022-07-05T07:30:12;18.20;93.40
21950;DHT22;11139;51.284;7.226;2022-07-05T07:32:38;18.10;93.40
21950;DHT22;11139;51.284;7.226;2022-07-05T07:35:04;18.20;93.40
21950;DHT22;11139;51.284;7.226;2022-07-05T07:37:30;18.20;93.40
21950;DHT22;11139;51.284;7.226;2022-07-05T07:39:56;18.10;93.30
21950;DHT22;11139;51.284;7.226;2022-07-05T07:42:24;18.20;93.40
21950;DHT22;11139;51.284;7.226;2022-07-05T07:44:50;18.10;93.30
21950;DHT22;11139;51.284;7.226;2022-07-05T07:47:16;18.20;93.40
21950;DHT22;11139;51.284;7.226;2022-07-05T07:49:41;18.10;93.40
21950;DHT22;11139;51.284;7.226;2022-07-05T07:52:07;18.20;93.30
21950;DHT22;11139;51.284;7.226;2022-07-05T07:54:32;18.20;93.10
21950;DHT22;11139;51.284;7.226;2022-07-05T07:56:58;18.10;93.10
21950;DHT22;11139;51.284;7.226;2022-07-05T07:59:25;18.10;93.10
21950;DHT22;11139;51.284;7.226;2022-07-05T08:01:50;18.20;93.20
21950;DHT22;11139;51.284;7.226;2022-07-05T08:04:16;18.20;93.20
21950;DHT22;11139;51.284;7.226;2022-07-05T08:06:42;18.10;93.10
21950;DHT22;11139;51.284;7.226;2022-07-05T08:09:08;18.20;93.10
21950;DHT22;11139;51.284;7.226;2022-07-05T08:11:33;18.20;93.20
21950;DHT22;11139;51.284;7.226;2022-07-05T08:13:59;18.20;93.20
21950;DHT22;11139;51.284;7.226;2022-07-05T08:16:25;18.20;93.20
21950;DHT22;11139;51.284;7.226;2022-07-05T08:18:50;18.20;93.20
21950;DHT22;11139;51.284;7.226;2022-07-05T08:21:34;18.20;93.30
21950;DHT22;11139;51.284;7.226;2022-07-05T08:24:09;18.10;93.20
21950;DHT22;11139;51.284;7.226;2022-07-05T08:26:38;18.20;93.20
21950;DHT22;11139;51.284;7.226;2022-07-05T08:29:05;18.20;93.00
21950;DHT22;11139;51.284;7.226;2022-07-05T08:31:32;18.10;93.00
21950;DHT22;11139;51.284;7.226;2022-07-05T08:33:58;18.10;93.10
21950;DHT22;11139;51.284;7.226;2022-07-05T08:36:24;18.20;93.20
21950;DHT22;11139;51.284;7.226;2022-07-05T08:38:50;18.20;93.10
21950;DHT22;11139;51.284;7.226;2022-07-05T08:41:20;18.20;93.10
21950;DHT22;11139;51.284;7.226;2022-07-05T08:43:46;18.20;93.10
21950;DHT22;11139;51.284;7.226;2022-07-05T08:46:13;18.20;93.10
21950;DHT22;11139;51.284;7.226;2022-07-05T08:48:42;18.10;93.10
21950;DHT22;11139;51.284;7.226;2022-07-05T08:51:12;18.20;92.90
21950;DHT22;11139;51.284;7.226;2022-07-05T08:53:41;18.20;92.90
21950;DHT22;11139;51.284;7.226;2022-07-05T08:56:08;18.20;92.90
21950;DHT22;11139;51.284;7.226;2022-07-05T08:58:40;18.20;92.80
21950;DHT22;11139;51.284;7.226;2022-07-05T09:01:06;18.30;92.50
21950;DHT22;11139;51.284;7.226;2022-07-05T09:03:39;18.30;92.40
21950;DHT22;11139;51.284;7.226;2022-07-05T09:06:08;18.30;92.30
21950;DHT22;11139;51.284;7.226;2022-07-05T09:08:34;18.30;92.30
21950;DHT22;11139;51.284;7.226;2022-07-05T09:11:06;18.30;92.20
21950;DHT22;11139;51.284;7.226;2022-07-05T09:13:40;18.30;92.30
21950;DHT22;11139;51.284;7.226;2022-07-05T09:16:05;18.20;92.40
21950;DHT22;11139;51.284;7.226;2022-07-05T09:18:41;18.20;92.60
21950;DHT22;11139;51.284;7.226;2022-07-05T09:21:11;18.20;92.50
21950;DHT22;11139;51.284;7.226;2022-07-05T09:23:39;18.20;92.60
21950;DHT22;11139;51.284;7.226;2022-07-05T09:26:07;18.20;92.60
21950;DHT22;11139;51.284;7.226;2022-07-05T09:28:50;18.30;92.40
21950;DHT22;11139;51.284;7.226;2022-07-05T09:31:28;18.30;92.30
21950;DHT22;11139;51.284;7.226;2022-07-05T09:33:56;18.30;92.40
21950;DHT22;11139;51.284;7.226;2022-07-05T09:36:25;18.30;92.30
21950;DHT22;11139;51.284;7.226;2022-07-05T09:38:50;18.30;92.50
21950;DHT22;11139;51.284;7.226;2022-07-05T09:41:18;18.30;92.40
21950;DHT22;11139;51.284;7.226;2022-07-05T09:43:47;18.20;92.50
21950;DHT22;11139;51.284;7.226;2022-07-05T09:46:12;18.30;92.40
21950;DHT22;11139;51.284;7.226;2022-07-05T09:48:50;18.30;92.20
21950;DHT22;11139;51.284;7.226;2022-07-05T09:51:16;18.30;92.00
21950;DHT22;11139;51.284;7.226;2022-07-05T09:53:45;18.30;92.20
21950;DHT22;11139;51.284;7.226;2022-07-05T09:56:14;18.30;92.10
21950;DHT22;11139;51.284;7.226;2022-07-05T09:58:39;18.30;91.90
21950;DHT22;11139;51.284;7.226;2022-07-05T10:01:25;18.30;92.10
21950;DHT22;11139;51.284;7.226;2022-07-05T10:04:00;18.30;91.90
21950;DHT22;11139;51.284;7.226;2022-07-05T10:06:32;18.30;91.90
21950;DHT22;11139;51.284;7.226;2022-07-05T10:09:01;18.30;92.10
21950;DHT22;11139;51.284;7.226;2022-07-05T10:11:27;18.30;92.10
21950;DHT22;11139;51.284;7.226;2022-07-05T10:13:55;18.30;92.20
21950;DHT22;11139;51.284;7.226;2022-07-05T10:16:25;18.30;92.20
21950;DHT22;11139;51.284;7.226;2022-07-05T10:18:57;18.30;92.30
21950;DHT22;11139;51.284;7.226;2022-07-05T10:21:23;18.50;91.50
21950;DHT22;11139;51.284;7.226;2022-07-05T10:23:52;19.00;90.80
21950;DHT22;11139;51.284;7.226;2022-07-05T10:26:22;19.30;90.30
21950;DHT22;11139;51.284;7.226;2022-07-05T10:28:48;19.50;90.10
21950;DHT22;11139;51.284;7.226;2022-07-05T10:31:20;19.90;89.70
21950;DHT22;11139;51.284;7.226;2022-07-05T10:33:46;20.00;88.70
21950;DHT22;11139;51.284;7.226;2022-07-05T10:36:14;20.00;90.10
21950;DHT22;11139;51.284;7.226;2022-07-05T10:38:43;20.00;90.70
21950;DHT22;11139;51.284;7.226;2022-07-05T10:41:11;19.90;91.10
21950;DHT22;11139;51.284;7.226;2022-07-05T10:43:37;19.80;91.60
21950;DHT22;11139;51.284;7.226;2022-07-05T10:46:06;19.80;91.70
21950;DHT22;11139;51.284;7.226;2022-07-05T10:48:33;19.80;91.70
21950;DHT22;11139;51.284;7.226;2022-07-05T10:58:42;19.70;91.30
21950;DHT22;11139;51.284;7.226;2022-07-05T11:06:23;19.70;91.30
21950;DHT22;11139;51.284;7.226;2022-07-05T11:14:34;19.70;91.10
21950;DHT22;11139;51.284;7.226;2022-07-05T11:17:13;19.60;90.90
21950;DHT22;11139;51.284;7.226;2022-07-05T11:22:35;19.70;90.00
21950;DHT22;11139;51.284;7.226;2022-07-05T11:25:05;19.60;89.80
21950;DHT22;11139;51.284;7.226;2022-07-05T11:27:37;19.60;90.10
21950;DHT22;11139;51.284;7.226;2022-07-05T11:30:29;19.60;90.20
21950;DHT22;11139;51.284;7.226;2022-07-05T11:32:58;19.60;90.00
21950;DHT22;11139;51.284;7.226;2022-07-05T11:35:32;19.70;89.00
21950;DHT22;11139;51.284;7.226;2022-07-05T11:40:37;19.70;87.50
21950;DHT22;11139;51.284;7.226;2022-07-05T11:43:08;19.70;87.10
21950;DHT22;11139;51.284;7.226;2022-07-05T11:45:36;19.80;87.70
21950;DHT22;11139;51.284;7.226;2022-07-05T11:48:04;19.70;87.90
21950;DHT22;11139;51.284;7.226;2022-07-05T11:50:31;19.70;88.20
21950;DHT22;11139;51.284;7.226;2022-07-05T11:52:57;19.60;88.40
21950;DHT22;11139;51.284;7.226;2022-07-05T11:55:50;19.60;88.30
21950;DHT22;11139;51.284;7.226;2022-07-05T11:58:34;19.60;87.90
21950;DHT22;11139;51.284;7.226;2022-07-05T12:01:08;19.60;88.50
21950;DHT22;11139;51.284;7.226;2022-07-05T12:03:47;19.60;88.80
21950;DHT22;11139;51.284;7.226;2022-07-05T12:06:21;19.60;89.00
21950;DHT22;11139;51.284;7.226;2022-07-05T12:12:16;19.70;87.90
21950;DHT22;11139;51.284;7.226;2022-07-05T12:15:00;19.70;88.50
21950;DHT22;11139;51.284;7.226;2022-07-05T12:17:40;19.70;88.60
21950;DHT22;11139;51.284;7.226;2022-07-05T12:20:09;19.70;87.90
21950;DHT22;11139;51.284;7.226;2022-07-05T12:22:39;19.60;88.30
21950;DHT22;11139;51.284;7.226;2022-07-05T12:25:17;19.60;88.80
21950;DHT22;11139;51.284;7.226;2022-07-05T12:27:47;19.70;88.70
21950;DHT22;11139;51.284;7.226;2022-07-05T12:30:23;19.60;88.90
21950;DHT22;11139;51.284;7.226;2022-07-05T12:33:01;19.60;89.10
21950;DHT22;11139;51.284;7.226;2022-07-05T12:38:15;19.60;89.30
21950;DHT22;11139;51.284;7.226;2022-07-05T12:40:43;19.60;89.40
21950;DHT22;11139;51.284;7.226;2022-07-05T12:43:13;19.60;89.30
21950;DHT22;11139;51.284;7.226;2022-07-05T12:45:39;19.60;89.40
21950;DHT22;11139;51.284;7.226;2022-07-05T12:48:09;19.60;89.60
21950;DHT22;11139;51.284;7.226;2022-07-05T12:50:51;19.60;89.60
21950;DHT22;11139;51.284;7.226;2022-07-05T12:53:17;19.70;89.60
21950;DHT22;11139;51.284;7.226;2022-07-05T12:56:08;19.70;89.70
21950;DHT22;11139;51.284;7.226;2022-07-05T12:59:02;19.60;89.60
21950;DHT22;11139;51.284;7.226;2022-07-05T13:01:39;19.60;89.90
21950;DHT22;11139;51.284;7.226;2022-07-05T13:04:09;19.60;89.80
21950;DHT22;11139;51.284;7.226;2022-07-05T13:07:09;19.70;89.70
21950;DHT22;11139;51.284;7.226;2022-07-05T13:09:36;19.80;88.90
21950;DHT22;11139;51.284;7.226;2022-07-05T13:12:12;19.80;88.30
21950;DHT22;11139;51.284;7.226;2022-07-05T13:14:39;19.80;87.50
21950;DHT22;11139;51.284;7.226;2022-07-05T13:17:05;19.80;87.60
21950;DHT22;11139;51.284;7.226;2022-07-05T13:19:38;19.70;88.30
21950;DHT22;11139;51.284;7.226;2022-07-05T13:22:11;19.80;89.40
21950;DHT22;11139;51.284;7.226;2022-07-05T13:24:43;19.70;88.70
21950;DHT22;11139;51.284;7.226;2022-07-05T13:27:11;19.70;88.80
21950;DHT22;11139;51.284;7.226;2022-07-05T13:29:40;19.70;88.70
21950;DHT22;11139;51.284;7.226;2022-07-05T13:32:06;19.80;88.10
21950;DHT22;11139;51.284;7.226;2022-07-05T13:34:32;19.80;88.60
21950;DHT22;11139;51.284;7.226;2022-07-05T13:36:58;19.80;88.60
21950;DHT22;11139;51.284;7.226;2022-07-05T13:39:27;19.70;88.10
21950;DHT22;11139;51.284;7.226;2022-07-05T13:41:56;19.80;87.80
21950;DHT22;11139;51.284;7.226;2022-07-05T13:44:22;19.80;86.50
21950;DHT22;11139;51.284;7.226;2022-07-05T13:46:50;19.80;86.60
21950;DHT22;11139;51.284;7.226;2022-07-05T13:49:37;19.80;87.00
21950;DHT22;11139;51.284;7.226;2022-07-05T13:52:05;19.80;86.70
21950;DHT22;11139;51.284;7.226;2022-07-05T13:54:31;19.80;87.00
21950;DHT22;11139;51.284;7.226;2022-07-05T13:56:57;19.80;87.10
21950;DHT22;11139;51.284;7.226;2022-07-05T13:59:25;19.80;86.60
21950;DHT22;11139;51.284;7.226;2022-07-05T14:01:50;19.80;87.10
21950;DHT22;11139;51.284;7.226;2022-07-05T14:04:26;19.80;87.20
21950;DHT22;11139;51.284;7.226;2022-07-05T14:06:55;19.90;86.30
21950;DHT22;11139;51.284;7.226;2022-07-05T14:09:20;19.90;85.30
21950;DHT22;11139;51.284;7.226;2022-07-05T14:11:49;19.90;85.20
21950;DHT22;11139;51.284;7.226;2022-07-05T14:14:14;19.90;84.50
21950;DHT22;11139;51.284;7.226;2022-07-05T14:16:40;19.90;84.60
21950;DHT22;11139;51.284;7.226;2022-07-05T14:19:13;19.90;85.00
21950;DHT22;11139;51.284;7.226;2022-07-05T14:21:46;19.80;85.40
21950;DHT22;11139;51.284;7.226;2022-07-05T14:24:18;19.80;85.70
21950;DHT22;11139;51.284;7.226;2022-07-05T14:26:43;19.80;86.00
21950;DHT22;11139;51.284;7.226;2022-07-05T14:29:15;19.90;85.00
21950;DHT22;11139;51.284;7.226;2022-07-05T14:31:41;19.90;85.10
21950;DHT22;11139;51.284;7.226;2022-07-05T14:34:18;19.90;85.40
21950;DHT22;11139;51.284;7.226;2022-07-05T14:36:51;19.90;84.70
21950;DHT22;11139;51.284;7.226;2022-07-05T14:39:17;19.90;86.10
21950;DHT22;11139;51.284;7.226;2022-07-05T14:41:51;19.90;85.20
21950;DHT22;11139;51.284;7.226;2022-07-05T14:44:20;19.90;85.00
21950;DHT22;11139;51.284;7.226;2022-07-05T14:46:54;19.90;84.80
21950;DHT22;11139;51.284;7.226;2022-07-05T14:49:19;19.90;85.40
21950;DHT22;11139;51.284;7.226;2022-07-05T14:51:50;19.90;85.10
21950;DHT22;11139;51.284;7.226;2022-07-05T14:54:15;20.00;84.20
21950;DHT22;11139;51.284;7.226;2022-07-05T14:56:41;20.00;84.80
21950;DHT22;11139;51.284;7.226;2022-07-05T14:59:07;20.00;84.40
21950;DHT22;11139;51.284;7.226;2022-07-05T15:01:35;20.00;84.70
21950;DHT22;11139;51.284;7.226;2022-07-05T15:04:01;20.00;85.00
21950;DHT22;11139;51.284;7.226;2022-07-05T15:06:31;19.90;85.50
21950;DHT22;11139;51.284;7.226;2022-07-05T15:09:17;19.80;86.00
21950;DHT22;11139;51.284;7.226;2022-07-05T15:11:43;19.90;86.40
21950;DHT22;11139;51.284;7.226;2022-07-05T15:14:09;19.90;85.90
21950;DHT22;11139;51.284;7.226;2022-07-05T15:16:37;19.90;86.50
21950;DHT22;11139;51.284;7.226;2022-07-05T15:19:02;19.90;85.40
21950;DHT22;11139;51.284;7.226;2022-07-05T15:21:28;19.90;85.30
21950;DHT22;11139;51.284;7.226;2022-07-05T15:23:53;19.90;85.30
21950;DHT22;11139;51.284;7.226;2022-07-05T15:26:21;19.90;85.40
21950;DHT22;11139;51.284;7.226;2022-07-05T15:28:47;19.90;85.70
21950;DHT22;11139;51.284;7.226;2022-07-05T15:31:12;19.90;85.60
21950;DHT22;11139;51.284;7.226;2022-07-05T15:33:38;19.90;86.00
21950;DHT22;11139;51.284;7.226;2022-07-05T15:36:07;19.90;86.30
21950;DHT22;11139;51.284;7.226;2022-07-05T15:38:32;19.90;86.10
21950;DHT22;11139;51.284;7.226;2022-07-05T15:40:58;19.90;86.30
21950;DHT22;11139;51.284;7.226;2022-07-05T15:43:24;19.90;86.50
21950;DHT22;11139;51.284;7.226;2022-07-05T15:45:53;19.90;86.70
21950;DHT22;11139;51.284;7.226;2022-07-05T15:48:19;19.90;86.90
21950;DHT22;11139;51.284;7.226;2022-07-05T15:50:54;19.90;87.10
21950;DHT22;11139;51.284;7.226;2022-07-05T15:53:20;19.90;87.40
21950;DHT22;11139;51.284;7.226;2022-07-05T15:55:48;19.90;87.70
21950;DHT22;11139;51.284;7.226;2022-07-05T15:58:19;19.90;87.90
21950;DHT22;11139;51.284;7.226;2022-07-05T16:00:45;19.90;88.00
21950;DHT22;11139;51.284;7.226;2022-07-05T16:03:11;19.90;88.20
21950;DHT22;11139;51.284;7.226;2022-07-05T16:05:37;19.90;88.30
21950;DHT22;11139;51.284;7.226;2022-07-05T16:08:02;19.90;88.60
21950;DHT22;11139;51.284;7.226;2022-07-05T16:10:30;19.90;88.60
21950;DHT22;11139;51.284;7.226;2022-07-05T16:12:56;19.90;88.70
21950;DHT22;11139;51.284;7.226;2022-07-05T16:15:22;19.80;88.80
21950;DHT22;11139;51.284;7.226;2022-07-05T16:18:15;19.90;89.00